Flight Track Log - Related Links

Times and Time Zones

All times are in EDT time to prevent confusion due to time zone crossing. See the DAL2373 flight status page for this flight to view local times or setup timezone preferences in your user account.

Time Position Orientation Groundspeed Altitude Reporting Facility
EDT Latitude Longitude Course Direction KTS MPH feet Rate Location/Type
Sun 01:32:34 PM 33.6333 -84.5000 270° West 218 251 3,000  Level Atlanta TRACON
Sun 01:33:35 PM 33.6333 -84.6000 202° Southwest 275 316 5,900 2,800 Climbing Atlanta TRACON
Sun 01:34:49 PM 33.5569 -84.6372 145° Southeast 306 352 9,300 1,836 Climbing Atlanta Center
Sun 01:35:49 PM 33.4822 -84.5742 129° Southeast 304 350 10,000 750 Climbing Atlanta Center
Sun 01:36:49 PM 33.4136 -84.4719 128° Southeast 339 390 10,800 1,300 Climbing Atlanta Center
Sun 01:37:49 PM 33.3408 -84.3619 129° Southeast 396 456 12,600 1,850 Climbing Atlanta Center
Sun 01:38:49 PM 33.2639 -84.2475 129° Southeast 433 498 14,500 1,950 Climbing Atlanta Center
Sun 01:39:49 PM 33.1889 -84.1356 141° Southeast 443 510 16,500 1,750 Climbing Atlanta Center
Sun 01:40:49 PM 33.0928 -84.0439 146° Southeast 437 503 18,000 1,450 Climbing Atlanta Center
Sun 01:41:49 PM 32.9886 -83.9597 146° Southeast 448 516 19,400 1,450 Climbing Atlanta Center
Sun 01:42:49 PM 32.8819 -83.8756 146° Southeast 456 525 20,900 1,150 Climbing Atlanta Center
Sun 01:43:49 PM 32.7733 -83.7869 146° Southeast 468 539 21,700 850 Climbing Atlanta Center
Sun 01:44:49 PM 32.6603 -83.6958 146° Southeast 480 552 22,600 1,000 Climbing Atlanta Center
Sun 01:45:49 PM 32.5431 -83.6028 145° Southeast 492 566 23,700 1,050 Climbing Atlanta Center
Sun 01:46:49 PM 32.4300 -83.5097 147° Southeast 492 566 24,700 1,150 Climbing Atlanta Center
Sun 01:47:49 PM 32.3106 -83.4169 147° Southeast 498 573 26,000 1,350 Climbing Atlanta Center
Sun 01:48:49 PM 32.1953 -83.3269 146° Southeast 504 580 27,400 1,500 Climbing Atlanta Center
Sun 01:49:49 PM 32.0842 -83.2397 145° Southeast 499 574 29,000 1,228 Climbing Atlanta Center
Sun 01:50:56 PM 31.9492 -83.1300 147° Southeast 490 564 30,000 472 Climbing Jacksonville Center
Sun 01:51:56 PM 31.8367 -83.0442 146° Southeast 490 564 30,000  Level Jacksonville Center
Sun 01:52:56 PM 31.7281 -82.9586 146° Southeast 490 564 30,000  Level Jacksonville Center
Sun 01:53:56 PM 31.6153 -82.8681 147° Southeast 490 564 30,000  Level Jacksonville Center
Sun 01:54:56 PM 31.5025 -82.7831 146° Southeast 490 564 30,000  Level Jacksonville Center
Sun 01:55:56 PM 31.3958 -82.7003 146° Southeast 480 552 30,000  Level Jacksonville Center
Sun 01:56:56 PM 31.2956 -82.6203 147° Southeast 480 552 30,000  Level Jacksonville Center
Sun 01:57:56 PM 31.1825 -82.5356 147° Southeast 485 558 30,000  Level Jacksonville Center
Sun 01:58:56 PM 31.0717 -82.4511 147° Southeast 485 558 30,000  Level Jacksonville Center
Sun 01:59:56 PM 30.9608 -82.3669 146° Southeast 485 558 30,000  Level Jacksonville Center
Sun 02:00:56 PM 30.8497 -82.2803 147° Southeast 485 558 30,000  Level Jacksonville Center
Sun 02:01:56 PM 30.7386 -82.1964 147° Southeast 485 558 30,000  Level Jacksonville Center
Sun 02:02:56 PM 30.6253 -82.1103 145° Southeast 485 558 30,000  Level Jacksonville Center
Sun 02:03:56 PM 30.5078 -82.0150 147° Southeast 485 558 30,000  Level Jacksonville Center
Sun 02:04:56 PM 30.3944 -81.9292 147° Southeast 480 552 30,000  Level Jacksonville Center
Sun 02:05:56 PM 30.2831 -81.8439 147° Southeast 486 559 30,000  Level Jacksonville Center
Sun 02:06:56 PM 30.1739 -81.7608 149° Southeast 486 559 30,000  Level Jacksonville Center
Sun 02:07:56 PM 30.0603 -81.6806 147° Southeast 486 559 30,000  Level Jacksonville Center
Sun 02:08:56 PM 29.9508 -81.5981 146° Southeast 479 551 30,000  Level Jacksonville Center
Sun 02:09:56 PM 29.8436 -81.5156 148° Southeast 474 545 30,000  Level Jacksonville Center
Sun 02:10:56 PM 29.7342 -81.4383 147° Southeast 469 540 30,000  Level Jacksonville Center
Sun 02:11:56 PM 29.6247 -81.3564 146° Southeast 469 540 30,000  Level Jacksonville Center
Sun 02:12:56 PM 29.5172 -81.2744 145° Southeast 469 540 30,000  Level Jacksonville Center
Sun 02:13:56 PM 29.4117 -81.1903 153° Southeast 464 534 30,000  Level Jacksonville Center
Sun 02:15:45 PM 29.2089 -81.0739 162° South 473 544 30,000  Level Miami Center
Sun 02:16:45 PM 29.0869 -81.0289 160° South 473 544 30,000  Level Miami Center
Sun 02:17:45 PM 28.9675 -80.9792 140° Southeast 462 532 30,000  Level Miami Center
Sun 02:18:45 PM 28.8581 -80.8733 133° Southeast 447 514 30,000  Level Miami Center
Sun 02:19:45 PM 28.7792 -80.7758 133° Southeast 461 531 30,000  Level Miami Center
Sun 02:20:45 PM 28.6803 -80.6539 132° Southeast 466 536 30,000  Level Miami Center
Sun 02:21:45 PM 28.5914 -80.5422 133° Southeast 474 545 30,000  Level Miami Center
Sun 02:22:45 PM 28.5003 -80.4306 132° Southeast 474 545 30,000  Level Miami Center
Sun 02:23:45 PM 28.4214 -80.3314 132° Southeast 474 545 30,000  Level Miami Center
Sun 02:24:45 PM 28.3342 -80.2225 136° Southeast 474 545 30,000  Level Miami Center
Sun 02:25:45 PM 28.2306 -80.1108 150° Southeast 474 545 30,000  Level Miami Center
Sun 02:26:45 PM 28.1194 -80.0372 150° Southeast 469 540 30,000  Level Miami Center
Sun 02:27:45 PM 28.0083 -79.9636 151° Southeast 464 534 30,000  Level Miami Center
Sun 02:28:45 PM 27.8908 -79.8897 149° Southeast 466 536 30,000  Level Miami Center
Sun 02:29:45 PM 27.7942 -79.8239 150° Southeast 466 536 30,000  Level Miami Center
Sun 02:30:45 PM 27.6706 -79.7433 150° Southeast 461 531 30,000  Level Miami Center
Sun 02:31:45 PM 27.5592 -79.6703 149° Southeast 461 531 30,000  Level Miami Center
Sun 02:32:45 PM 27.4458 -79.5947 151° Southeast 466 536 30,000 -900 Level Miami Center
Sun 02:33:45 PM 27.3467 -79.5317 150° Southeast 460 529 28,200 -2,500 Descending Miami Center
Sun 02:34:45 PM 27.2353 -79.4592 174° South 455 524 25,000 -2,600 Descending Miami Center
Sun 02:35:45 PM 27.1039 -79.4444 192° South 429 494 23,000 -1,000 Descending Miami Center
Sun 02:36:45 PM 26.9906 -79.4722 191° South 419 482 23,000 -450 Level Miami Center
Sun 02:37:45 PM 26.8858 -79.4956 193° South 424 488 22,100 -1,050 Descending Miami Center
Sun 02:38:45 PM 26.7578 -79.5275 195° South 430 495 20,900 -1,550 Descending Miami Center
Sun 02:39:45 PM 26.6486 -79.5600 206° Southwest 430 495 19,000 -2,200 Descending Miami Center
Sun 02:40:45 PM 26.5494 -79.6133 224° Southwest 416 479 16,500 -1,875 Descending Miami Center
Sun 02:41:21 PM 26.5047 -79.6611 248° West 376 433 16,000 -500 Descending Miami Center
Sun 02:41:45 PM 26.4936 -79.6911 236° Southwest 366 421 16,000  Level Miami Center
Sun 02:42:45 PM 26.4333 -79.7892 235° Southwest 355 409 16,000 -141 Level Miami Center
Sun 02:43:53 PM 26.3706 -79.8897 225° Southwest 348 400 15,700 -600 Descending Miami Center
Sun 02:44:45 PM 26.3108 -79.9556 223° Southwest 350 403 14,800 -985 Descending Miami Center
Sun 02:45:00 PM 26.2914 -79.9758 215° Southwest 343 395 14,600 -1,000 Descending Miami Center
Sun 02:45:45 PM 26.2364 -80.0183 198° South 343 395 13,800 -984 Descending Miami Center
Sun 02:46:01 PM 26.2131 -80.0269 195° South 346 398 13,600 -900 Descending Miami Center
Sun 02:46:45 PM 26.1481 -80.0461 189° South 334 384 12,900 -1,082 Descending Miami Center
Sun 02:47:02 PM 26.1250 -80.0500 195° South 322 371 12,500 -2,200 Descending Miami Center
Sun 02:47:45 PM 26.0619 -80.0692 194° South 329 379 10,700 -1,515 Descending Miami Center
Sun 02:48:45 PM 25.9797 -80.0925 240° Southwest 319 367 9,900 -650 Descending Miami Center
Sun 02:49:45 PM 25.9492 -80.1517 269° West 230 265 9,400 -720 Descending Miami Center
Sun 02:50:00 PM 25.9489 -80.1678 271° West 226 260 9,000 -1,100 Descending Miami Center
Sun 02:50:45 PM 25.9497 -80.2186 253° West 208 239 8,300 -787 Descending Miami Center
Sun 02:51:01 PM 25.9453 -80.2347 217° Southwest 208 239 8,200 -701 Descending Miami Center
Sun 02:52:02 PM 25.9047 -80.2683 150° Southeast 204 235 7,400 -836 Descending Miami Center
Sun 02:53:03 PM 25.8636 -80.2417 72° East 224 258 6,500 -1,082 Descending Miami Center
Sun 02:54:04 PM 25.8842 -80.1731 95° East 220 253 5,200 -1,475 Descending Miami Center
Sun 02:55:05 PM 25.8792 -80.1083 211° Southwest 211 243 3,500 -1,230 Descending Miami Center
Sun 02:56:06 PM 25.8389 -80.1347 238° Southwest 198 228 2,700 -797 Descending Miami Center
Sun 02:57:13 PM 25.8083 -80.1894 261° West 185 213 1,800 -977 Descending Miami Center
Sun 02:58:15 PM 25.8011 -80.2400 269° West 166 191 600 -1,161 Descending Miami Center
Sun 03:06:00 PM 25.7899 -81.2067 269° West  Level FlightAware Approximate

Login

Don't have an account? Register now (free) for customized features, flight alerts, and more!